Time;durP1;ratioP1;P1;durP2;ratioP2;P2;SDS_P1;SDS_P2;PMS_P1;PMS_P2;Temp;Humidity;BMP_temperature;BMP_pressure;BME280_temperature;BME280_humidity;BME280_pressure;Samples;Min_cycle;Max_cycle;Signal;HPM_P1;HPM_P2
2023/08/18 00:02:11;;;;;;;3.75;1.48;;;15.90;97.40;;;;;;5023009;28;20060;-68
2023/08/18 00:04:36;;;;;;;3.35;1.55;;;15.90;97.40;;;;;;5027146;28;20524;-69
2023/08/18 00:07:02;;;;;;;3.13;1.30;;;15.90;97.50;;;;;;5021958;28;20044;-68
2023/08/18 00:09:27;;;;;;;5.20;1.70;;;16.00;97.50;;;;;;5029199;28;20033;-68
2023/08/18 00:11:53;;;;;;;3.72;1.40;;;16.00;97.60;;;;;;5023468;28;20088;-68
2023/08/18 00:14:18;;;;;;;4.93;1.50;;;16.00;97.60;;;;;;5013796;28;20050;-68
2023/08/18 00:16:44;;;;;;;8.15;1.67;;;16.00;97.50;;;;;;5015538;28;20475;-68
2023/08/18 00:19:09;;;;;;;3.97;1.33;;;16.00;97.40;;;;;;5022249;28;20037;-68
2023/08/18 00:21:34;;;;;;;2.80;1.50;;;16.00;97.40;;;;;;5031439;28;20579;-68
2023/08/18 00:24:00;;;;;;;4.40;1.38;;;16.00;97.30;;;;;;5031637;28;20029;-68
2023/08/18 00:26:25;;;;;;;5.75;1.58;;;16.00;97.50;;;;;;5029868;28;20033;-69
2023/08/18 00:28:51;;;;;;;5.28;1.60;;;16.00;97.60;;;;;;5041374;28;20069;-69
2023/08/18 00:31:16;;;;;;;5.32;1.33;;;16.00;97.70;;;;;;5022132;28;20478;-69
2023/08/18 00:33:42;;;;;;;3.20;1.30;;;16.00;97.50;;;;;;5045982;28;20033;-68
2023/08/18 00:36:07;;;;;;;3.15;1.40;;;16.00;97.50;;;;;;5029066;28;20449;-70
2023/08/18 00:38:33;;;;;;;6.47;1.65;;;16.00;97.40;;;;;;5039611;28;20029;-68
2023/08/18 00:40:58;;;;;;;4.28;1.48;;;16.00;97.40;;;;;;5043809;28;20037;-69
2023/08/18 00:43:24;;;;;;;4.28;1.40;;;16.00;97.20;;;;;;5026176;28;20034;-68
2023/08/18 00:45:52;;;;;;;4.57;1.55;;;16.00;97.30;;;;;;5030447;28;20033;-70
2023/08/18 00:48:18;;;;;;;4.80;1.63;;;16.00;97.30;;;;;;5032158;28;20122;-68
2023/08/18 00:50:44;;;;;;;2.35;1.10;;;16.00;97.40;;;;;;5027255;28;20064;-69
2023/08/18 00:53:10;;;;;;;5.13;1.95;;;16.00;97.40;;;;;;5038297;28;20389;-68
2023/08/18 00:55:36;;;;;;;6.22;1.70;;;16.00;97.50;;;;;;5036924;28;20046;-68
2023/08/18 00:58:02;;;;;;;3.70;1.60;;;16.00;97.60;;;;;;5037013;28;20029;-68
2023/08/18 01:00:28;;;;;;;5.85;1.67;;;16.00;97.50;;;;;;5026359;28;20124;-68
2023/08/18 01:02:54;;;;;;;6.03;1.70;;;16.00;97.60;;;;;;5038469;28;20174;-69
2023/08/18 01:05:19;;;;;;;3.28;1.33;;;16.00;97.70;;;;;;5021709;28;20164;-69
2023/08/18 01:07:45;;;;;;;2.40;1.38;;;16.00;97.70;;;;;;5035016;28;20547;-70
2023/08/18 01:10:11;;;;;;;2.83;1.30;;;16.00;97.70;;;;;;5033597;28;20118;-68
2023/08/18 01:13:06;;;;;;;3.47;1.30;;;16.00;97.70;;;;;;5029361;28;20148;-70
2023/08/18 01:15:42;;;;;;;2.80;1.45;;;16.00;97.70;;;;;;4981784;28;20405;-69
2023/08/18 01:18:10;;;;;;;6.95;1.20;;;16.00;97.70;;;;;;5030332;28;20028;-69
2023/08/18 01:20:37;;;;;;;4.40;1.38;;;16.00;97.80;;;;;;5015776;28;20030;-68
2023/08/18 01:23:04;;;;;;;3.33;1.50;;;16.00;97.80;;;;;;5027447;28;20034;-68
2023/08/18 01:25:30;;;;;;;7.05;1.45;;;16.00;97.80;;;;;;5032058;28;20199;-68
2023/08/18 01:28:00;;;;;;;5.57;1.25;;;16.00;97.90;;;;;;5039247;28;20052;-69
2023/08/18 01:30:41;;;;;;;3.22;1.33;;;16.00;97.90;;;;;;5027246;28;20030;-68
2023/08/18 01:33:38;;;;;;;3.60;1.52;;;16.00;97.90;;;;;;5030019;28;20033;-68
2023/08/18 01:36:08;;;;;;;5.50;1.83;;;16.00;97.90;;;;;;5040844;28;20034;-69
2023/08/18 01:38:36;;;;;;;2.70;1.50;;;16.00;97.80;;;;;;5030576;28;20021;-68
2023/08/18 01:41:05;;;;;;;5.65;1.63;;;16.00;97.90;;;;;;5031783;28;20045;-68
2023/08/18 01:43:32;;;;;;;4.82;1.50;;;16.00;97.90;;;;;;5026850;28;20029;-68
2023/08/18 01:45:59;;;;;;;4.80;1.67;;;16.00;97.80;;;;;;5026397;28;20025;-68
2023/08/18 01:48:25;;;;;;;4.57;1.50;;;16.00;97.70;;;;;;5028837;28;20374;-68
2023/08/18 01:50:50;;;;;;;6.70;1.48;;;16.00;97.70;;;;;;5025777;28;20038;-68
2023/08/18 01:53:15;;;;;;;1.83;1.30;;;16.00;97.70;;;;;;5026927;28;20381;-68
2023/08/18 01:55:43;;;;;;;4.38;1.55;;;16.00;97.70;;;;;;5026947;28;20041;-68
2023/08/18 01:58:08;;;;;;;4.53;1.45;;;16.00;97.80;;;;;;5028126;28;20436;-68
2023/08/18 02:00:34;;;;;;;4.40;1.80;;;16.00;97.80;;;;;;5030114;28;20044;-68
2023/08/18 02:02:59;;;;;;;3.75;1.52;;;16.00;97.70;;;;;;5037193;28;20426;-68
2023/08/18 02:05:25;;;;;;;4.88;1.70;;;15.90;97.50;;;;;;5032609;28;20051;-68
2023/08/18 02:07:50;;;;;;;4.55;1.40;;;16.00;97.50;;;;;;5020500;28;20033;-68
2023/08/18 02:10:16;;;;;;;4.20;1.27;;;15.90;97.50;;;;;;5033104;28;20524;-68
2023/08/18 02:12:41;;;;;;;2.00;1.33;;;15.90;97.70;;;;;;5023664;28;20505;-68
2023/08/18 02:15:07;;;;;;;3.95;1.60;;;15.80;97.70;;;;;;5021361;28;20025;-70
2023/08/18 02:17:33;;;;;;;5.00;1.52;;;15.80;97.70;;;;;;5027713;28;20508;-69
2023/08/18 02:19:58;;;;;;;4.60;1.85;;;15.80;97.70;;;;;;5029973;28;20037;-68
2023/08/18 02:22:25;;;;;;;8.10;1.70;;;15.80;97.70;;;;;;5026098;28;20363;-68
2023/08/18 02:24:51;;;;;;;3.65;1.70;;;15.80;97.80;;;;;;5030699;28;20049;-68
2023/08/18 02:27:17;;;;;;;4.97;1.70;;;15.80;97.70;;;;;;5025046;28;20076;-69
2023/08/18 02:29:42;;;;;;;4.60;1.60;;;15.80;97.70;;;;;;5026428;28;20041;-69
2023/08/18 02:32:08;;;;;;;6.68;1.70;;;15.80;97.80;;;;;;5033662;28;20040;-69
2023/08/18 02:34:33;;;;;;;4.40;1.30;;;15.80;97.80;;;;;;5043030;28;20888;-69
2023/08/18 02:36:59;;;;;;;5.32;1.80;;;15.80;97.80;;;;;;5031938;28;20032;-69
2023/08/18 02:39:24;;;;;;;3.08;1.30;;;15.80;97.80;;;;;;5030919;28;20045;-69
2023/08/18 02:41:51;;;;;;;5.68;1.63;;;15.70;97.90;;;;;;5039331;28;20033;-68
2023/08/18 02:44:17;;;;;;;4.78;1.70;;;15.70;97.90;;;;;;5026223;28;20033;-69
2023/08/18 02:46:42;;;;;;;5.53;1.40;;;15.60;97.90;;;;;;5029070;28;20039;-68
2023/08/18 02:49:08;;;;;;;5.85;1.73;;;15.50;98.00;;;;;;5030359;28;20099;-69
2023/08/18 02:51:33;;;;;;;5.30;1.63;;;15.50;98.10;;;;;;5031795;28;20497;-68
2023/08/18 02:53:59;;;;;;;5.72;1.98;;;15.40;98.20;;;;;;5033593;28;20041;-68
2023/08/18 02:56:26;;;;;;;5.70;1.92;;;15.30;98.40;;;;;;5019603;28;20109;-69
2023/08/18 02:58:52;;;;;;;6.50;1.90;;;15.30;98.40;;;;;;5029853;28;20396;-68
2023/08/18 03:01:17;;;;;;;7.03;1.95;;;15.20;98.50;;;;;;5049587;28;20033;-68
2023/08/18 03:03:43;;;;;;;4.45;1.88;;;15.20;98.60;;;;;;5034300;28;20119;-68
2023/08/18 03:06:09;;;;;;;6.32;1.90;;;15.10;98.60;;;;;;5035478;28;20036;-68
2023/08/18 03:08:36;;;;;;;3.55;1.80;;;15.00;98.70;;;;;;5036205;28;20025;-68
2023/08/18 03:11:02;;;;;;;7.20;1.85;;;15.00;98.80;;;;;;5032522;28;20033;-68
2023/08/18 03:13:28;;;;;;;3.97;1.92;;;14.90;98.80;;;;;;5029116;28;20512;-69
2023/08/18 03:15:54;;;;;;;7.20;2.08;;;14.80;98.90;;;;;;5027321;28;20061;-68
2023/08/18 03:18:20;;;;;;;5.03;2.25;;;14.80;99.10;;;;;;5047228;28;20500;-69
2023/08/18 03:20:49;;;;;;;6.55;2.33;;;14.80;99.20;;;;;;5037375;28;20124;-68
2023/08/18 03:23:15;;;;;;;8.15;2.30;;;14.70;99.30;;;;;;5036762;28;20029;-68
2023/08/18 03:25:42;;;;;;;11.18;2.50;;;14.70;99.30;;;;;;5027572;28;20073;-68
2023/08/18 03:28:08;;;;;;;7.00;2.47;;;14.70;99.40;;;;;;5037250;28;20059;-69
2023/08/18 03:30:38;;;;;;;5.47;2.60;;;14.60;99.50;;;;;;5029541;28;20033;-68
2023/08/18 03:33:03;;;;;;;5.88;2.55;;;14.50;99.40;;;;;;5043962;28;20450;-68
2023/08/18 03:35:31;;;;;;;9.25;3.15;;;14.50;99.60;;;;;;5023616;28;20025;-68
2023/08/18 03:37:58;;;;;;;6.15;2.70;;;14.60;99.70;;;;;;5022616;28;20038;-68
2023/08/18 03:40:24;;;;;;;9.25;3.00;;;14.60;99.80;;;;;;5040035;28;20040;-68
2023/08/18 03:42:50;;;;;;;9.48;3.50;;;14.60;99.90;;;;;;5028639;28;20040;-68
2023/08/18 03:45:16;;;;;;;6.80;3.42;;;14.60;99.90;;;;;;5026680;28;20422;-68
2023/08/18 03:47:42;;;;;;;9.45;3.33;;;14.60;99.90;;;;;;5036668;28;20369;-68
2023/08/18 03:50:07;;;;;;;8.07;3.78;;;14.50;99.90;;;;;;5024005;28;20049;-68
2023/08/18 03:52:33;;;;;;;7.22;3.42;;;14.50;99.90;;;;;;5026846;28;20037;-68
2023/08/18 03:54:58;;;;;;;7.72;3.97;;;14.50;99.90;;;;;;5030842;28;20447;-68
2023/08/18 03:57:24;;;;;;;9.95;3.63;;;14.50;99.90;;;;;;5027964;28;20253;-68
2023/08/18 03:59:49;;;;;;;7.72;3.50;;;14.50;99.90;;;;;;5037815;28;20114;-68
2023/08/18 04:02:15;;;;;;;11.15;4.43;;;14.50;99.90;;;;;;5025370;28;20044;-69
2023/08/18 04:04:40;;;;;;;10.32;4.78;;;14.50;99.90;;;;;;5034192;28;20030;-69
2023/08/18 04:07:06;;;;;;;8.68;4.63;;;14.50;99.90;;;;;;5027516;28;20033;-68
2023/08/18 04:09:31;;;;;;;10.18;4.88;;;14.60;99.90;;;;;;5036981;28;20552;-68
2023/08/18 04:11:56;;;;;;;10.70;4.78;;;14.50;99.90;;;;;;5027675;28;20387;-69
2023/08/18 04:14:22;;;;;;;10.35;4.88;;;14.60;99.90;;;;;;5032868;28;20431;-68
2023/08/18 04:16:48;;;;;;;12.38;5.60;;;14.60;99.90;;;;;;5030836;28;20036;-68
2023/08/18 04:19:13;;;;;;;12.85;5.32;;;14.60;99.90;;;;;;5027282;28;20026;-68
2023/08/18 04:21:39;;;;;;;13.32;5.28;;;14.60;99.90;;;;;;5024311;28;20033;-68
2023/08/18 04:24:04;;;;;;;11.18;5.68;;;14.60;99.90;;;;;;5017634;28;20048;-69
2023/08/18 04:26:30;;;;;;;9.65;5.78;;;14.70;99.90;;;;;;5038054;28;20167;-68
2023/08/18 04:28:55;;;;;;;12.70;5.32;;;14.60;99.90;;;;;;5028133;28;20037;-69
2023/08/18 04:31:21;;;;;;;9.88;5.72;;;14.70;99.90;;;;;;5027684;28;20042;-70
2023/08/18 04:33:47;;;;;;;14.68;6.10;;;14.70;99.90;;;;;;5034297;28;20041;-71
2023/08/18 04:36:13;;;;;;;15.20;5.45;;;14.70;99.90;;;;;;5021443;28;20456;-71
2023/08/18 04:38:38;;;;;;;11.30;6.50;;;14.80;99.90;;;;;;5022031;28;20036;-71
2023/08/18 04:41:03;;;;;;;14.02;6.40;;;14.90;99.90;;;;;;5025540;28;20378;-71
2023/08/18 04:43:30;;;;;;;15.35;6.38;;;14.90;99.90;;;;;;5024131;28;20120;-71
2023/08/18 04:45:57;;;;;;;13.50;6.60;;;14.90;99.90;;;;;;5021658;28;20044;-71
2023/08/18 04:48:23;;;;;;;11.85;5.95;;;15.00;99.90;;;;;;5022087;28;20033;-70
2023/08/18 04:50:48;;;;;;;11.95;6.35;;;15.00;99.90;;;;;;5033495;28;20040;-72
2023/08/18 04:53:14;;;;;;;23.23;6.90;;;15.10;99.90;;;;;;5034689;28;20047;-70
2023/08/18 04:55:41;;;;;;;17.10;7.07;;;15.20;99.90;;;;;;5035884;28;20462;-70
2023/08/18 04:58:12;;;;;;;12.25;6.75;;;15.30;99.90;;;;;;5035659;28;20047;-71
2023/08/18 05:00:39;;;;;;;19.38;7.57;;;15.40;99.90;;;;;;5030994;28;20469;-71
2023/08/18 05:03:05;;;;;;;18.20;8.38;;;15.40;99.90;;;;;;5026392;28;20037;-70
2023/08/18 05:05:33;;;;;;;16.25;8.15;;;15.50;99.90;;;;;;5033251;28;20220;-70
2023/08/18 05:07:58;;;;;;;16.08;8.15;;;15.60;99.90;;;;;;5036451;28;20068;-70
2023/08/18 05:10:24;;;;;;;17.63;8.23;;;15.60;99.90;;;;;;5032158;28;20108;-70
2023/08/18 05:12:49;;;;;;;22.90;9.13;;;15.70;99.90;;;;;;5033841;28;20041;-71
2023/08/18 05:15:16;;;;;;;25.77;8.73;;;15.80;99.90;;;;;;5029728;28;20080;-70
2023/08/18 05:17:42;;;;;;;26.77;9.30;;;15.90;99.90;;;;;;5024170;28;20032;-70
2023/08/18 05:20:08;;;;;;;17.00;8.43;;;15.90;99.90;;;;;;5022184;28;20038;-71
2023/08/18 05:22:33;;;;;;;15.57;8.63;;;16.00;99.90;;;;;;5032835;28;20021;-70
2023/08/18 05:24:59;;;;;;;20.50;9.35;;;16.00;99.90;;;;;;5026921;28;20500;-71
2023/08/18 05:27:25;;;;;;;20.80;10.73;;;16.10;99.80;;;;;;5035698;28;20028;-70
2023/08/18 05:29:51;;;;;;;18.08;7.55;;;16.10;99.60;;;;;;5033691;28;20461;-70
2023/08/18 05:32:16;;;;;;;18.58;8.18;;;16.20;99.70;;;;;;5020299;28;20088;-70
2023/08/18 05:34:42;;;;;;;17.85;8.13;;;16.30;99.60;;;;;;5031959;28;20033;-70
2023/08/18 05:37:07;;;;;;;12.60;7.22;;;16.30;99.30;;;;;;5016078;28;20493;-71
2023/08/18 05:39:33;;;;;;;11.73;6.75;;;16.30;99.20;;;;;;5038709;28;20048;-72
2023/08/18 05:41:58;;;;;;;11.43;6.03;;;16.30;99.10;;;;;;5026248;28;20042;-70
2023/08/18 05:44:23;;;;;;;11.43;6.15;;;16.50;99.10;;;;;;5017182;28;20041;-71
2023/08/18 05:46:49;;;;;;;11.52;5.47;;;16.60;99.10;;;;;;5024275;28;20112;-71
2023/08/18 05:49:14;;;;;;;9.00;5.47;;;16.60;98.90;;;;;;5034521;28;20041;-70
2023/08/18 05:51:42;;;;;;;9.07;5.30;;;16.70;98.70;;;;;;5026832;28;20394;-70
2023/08/18 05:54:09;;;;;;;10.52;5.70;;;16.70;98.60;;;;;;5021763;28;20033;-71
2023/08/18 05:56:34;;;;;;;10.60;5.20;;;16.70;98.30;;;;;;5029863;28;20021;-70
2023/08/18 05:58:59;;;;;;;9.25;5.28;;;16.70;98.30;;;;;;5028934;28;20045;-70
2023/08/18 06:01:25;;;;;;;8.52;4.68;;;16.80;98.30;;;;;;5025986;28;20063;-70
2023/08/18 06:03:51;;;;;;;9.10;4.38;;;17.00;98.40;;;;;;5022336;28;20060;-69
2023/08/18 06:06:16;;;;;;;10.13;5.18;;;17.00;98.10;;;;;;5017401;28;20473;-70
2023/08/18 06:08:42;;;;;;;11.13;4.60;;;17.30;98.00;;;;;;5016354;28;20433;-70
2023/08/18 06:11:07;;;;;;;11.63;5.15;;;17.30;97.80;;;;;;5032407;28;20042;-70
2023/08/18 06:13:33;;;;;;;7.43;4.43;;;17.10;97.20;;;;;;5023851;28;20509;-70
2023/08/18 06:16:03;;;;;;;8.63;4.47;;;17.30;97.50;;;;;;5027940;28;20033;-70
2023/08/18 06:18:28;;;;;;;10.50;4.97;;;17.40;97.40;;;;;;5024202;28;20040;-71
2023/08/18 06:20:54;;;;;;;7.65;4.68;;;17.40;97.30;;;;;;5023280;28;20132;-70
2023/08/18 06:23:19;;;;;;;9.45;4.63;;;17.40;97.10;;;;;;5018013;28;20516;-71
2023/08/18 06:25:45;;;;;;;9.23;4.63;;;17.30;96.80;;;;;;5028322;28;20175;-71
2023/08/18 06:28:10;;;;;;;10.63;4.88;;;17.40;96.70;;;;;;5026220;28;20026;-71
2023/08/18 06:30:35;;;;;;;8.43;4.72;;;17.30;96.80;;;;;;5017913;28;20034;-72
2023/08/18 06:33:01;;;;;;;8.57;4.45;;;17.50;97.00;;;;;;5031288;28;20049;-72
2023/08/18 06:35:26;;;;;;;8.63;4.70;;;17.50;96.40;;;;;;5015549;28;20082;-71
2023/08/18 06:37:53;;;;;;;11.55;4.80;;;17.30;96.60;;;;;;5027841;28;20056;-70
2023/08/18 06:40:18;;;;;;;8.18;4.57;;;17.60;96.80;;;;;;5024233;28;20045;-70
2023/08/18 06:42:44;;;;;;;9.85;4.85;;;17.70;96.50;;;;;;5024541;28;20041;-70
2023/08/18 06:45:10;;;;;;;18.17;5.97;;;17.60;96.00;;;;;;5021384;28;20144;-70
2023/08/18 06:47:35;;;;;;;10.27;4.60;;;17.70;96.00;;;;;;5032614;28;20354;-71
2023/08/18 06:50:01;;;;;;;11.00;4.40;;;17.80;96.30;;;;;;5025597;28;20029;-70
2023/08/18 06:52:28;;;;;;;8.05;4.43;;;17.90;96.00;;;;;;5022198;28;20136;-70
2023/08/18 06:54:53;;;;;;;10.35;4.43;;;18.00;96.00;;;;;;5020163;28;20037;-70
2023/08/18 06:57:19;;;;;;;7.80;4.30;;;18.00;95.50;;;;;;5023569;28;20032;-72
2023/08/18 06:59:44;;;;;;;11.05;5.00;;;18.00;95.60;;;;;;5019073;28;20041;-70
2023/08/18 07:02:10;;;;;;;6.07;3.65;;;17.90;94.60;;;;;;5031967;28;20025;-70
2023/08/18 07:04:36;;;;;;;8.00;4.40;;;18.00;95.50;;;;;;5026301;28;20507;-70
2023/08/18 07:07:03;;;;;;;8.93;4.07;;;18.00;95.00;;;;;;5033929;28;20409;-70
2023/08/18 07:09:28;;;;;;;6.40;3.92;;;18.10;95.20;;;;;;5021220;28;20401;-70
2023/08/18 07:11:54;;;;;;;13.23;4.03;;;18.30;95.30;;;;;;5026421;28;20033;-70
2023/08/18 07:14:19;;;;;;;7.97;3.85;;;18.50;95.00;;;;;;5026914;28;20780;-70
2023/08/18 07:16:45;;;;;;;8.77;4.20;;;18.50;94.70;;;;;;5035305;28;20034;-72
2023/08/18 07:19:10;;;;;;;6.72;3.45;;;18.70;94.50;;;;;;5027383;28;20058;-70
2023/08/18 07:21:36;;;;;;;10.15;3.55;;;18.80;94.60;;;;;;5029967;28;20076;-70
2023/08/18 07:24:01;;;;;;;6.88;3.50;;;18.70;93.40;;;;;;5024559;28;20073;-71
2023/08/18 07:26:28;;;;;;;7.95;3.75;;;18.90;94.20;;;;;;5022826;28;20077;-71
2023/08/18 07:28:54;;;;;;;8.52;3.50;;;18.90;93.70;;;;;;5027854;28;20057;-70
2023/08/18 07:31:19;;;;;;;11.48;4.63;;;18.90;93.60;;;;;;5021709;28;20037;-71
2023/08/18 07:33:45;;;;;;;12.98;3.90;;;18.90;93.00;;;;;;5029231;28;20026;-70
2023/08/18 07:36:10;;;;;;;6.88;3.50;;;19.00;93.30;;;;;;5022879;28;20042;-70
2023/08/18 07:38:36;;;;;;;8.07;3.92;;;19.30;93.30;;;;;;5020083;28;20087;-70
2023/08/18 07:41:02;;;;;;;8.57;4.10;;;19.40;92.80;;;;;;5029857;28;20064;-71
2023/08/18 07:43:27;;;;;;;7.22;3.90;;;19.30;92.00;;;;;;5024177;28;20040;-71
2023/08/18 07:45:53;;;;;;;9.20;3.67;;;19.50;92.90;;;;;;5035142;28;20072;-71
2023/08/18 07:48:18;;;;;;;6.57;3.88;;;19.60;92.60;;;;;;5035889;28;20075;-71
2023/08/18 07:50:44;;;;;;;7.63;3.40;;;19.60;91.90;;;;;;5042520;28;20080;-70
2023/08/18 07:53:09;;;;;;;7.03;3.53;;;19.70;92.60;;;;;;5030556;28;20025;-70
2023/08/18 07:55:36;;;;;;;8.82;3.88;;;19.60;91.90;;;;;;5050237;28;20024;-71
2023/08/18 07:58:03;;;;;;;7.28;3.80;;;19.70;91.40;;;;;;5034260;28;20036;-71
2023/08/18 08:00:30;;;;;;;8.10;3.63;;;19.80;91.40;;;;;;5046983;28;20041;-71
2023/08/18 08:02:56;;;;;;;8.05;4.20;;;19.50;90.70;;;;;;5044350;28;20032;-70
2023/08/18 08:05:21;;;;;;;9.13;4.35;;;19.50;91.50;;;;;;5042729;28;20029;-70
2023/08/18 08:07:47;;;;;;;6.10;3.35;;;19.70;91.30;;;;;;5030170;28;20038;-71
2023/08/18 08:10:13;;;;;;;7.40;3.65;;;19.70;90.70;;;;;;5017940;28;20041;-71
2023/08/18 08:12:39;;;;;;;10.52;3.47;;;20.00;91.70;;;;;;5024901;28;20117;-71
2023/08/18 08:15:07;;;;;;;8.32;3.83;;;20.00;91.30;;;;;;5031716;28;20025;-72
2023/08/18 08:17:34;;;;;;;6.55;3.40;;;20.10;90.40;;;;;;5042742;28;20091;-71
2023/08/18 08:20:10;;;;;;;4.88;3.10;;;20.00;89.60;;;;;;5045297;28;20045;-71
2023/08/18 08:22:37;;;;;;;9.18;3.97;;;20.50;89.50;;;;;;5042090;28;20030;-71
2023/08/18 08:25:03;;;;;;;5.97;3.65;;;21.00;90.40;;;;;;5030951;28;20076;-70
2023/08/18 08:27:28;;;;;;;5.65;3.33;;;21.10;88.70;;;;;;5024504;28;20494;-71
2023/08/18 08:29:54;;;;;;;6.50;3.55;;;21.30;88.40;;;;;;5027918;28;20041;-71
2023/08/18 08:32:19;;;;;;;7.03;3.70;;;21.20;88.50;;;;;;5040217;28;20036;-71
2023/08/18 08:34:49;;;;;;;10.02;4.00;;;21.30;87.10;;;;;;5046964;28;20419;-71
2023/08/18 08:37:15;;;;;;;7.57;3.45;;;21.50;89.00;;;;;;5037534;28;20041;-71
2023/08/18 08:39:41;;;;;;;7.78;4.03;;;21.50;88.30;;;;;;5030271;28;20033;-71
2023/08/18 08:42:06;;;;;;;7.70;3.97;;;21.50;88.40;;;;;;5037078;28;20033;-74
2023/08/18 08:44:32;;;;;;;10.50;3.38;;;21.40;87.30;;;;;;5023068;28;20128;-73
2023/08/18 08:47:00;;;;;;;9.32;3.88;;;21.30;87.60;;;;;;5031065;28;20048;-71
2023/08/18 08:49:29;;;;;;;8.02;3.50;;;21.20;86.60;;;;;;5025351;28;20140;-71
2023/08/18 08:51:57;;;;;;;7.28;3.40;;;21.30;88.60;;;;;;5027692;28;20029;-71
2023/08/18 08:54:26;;;;;;;7.05;3.78;;;21.50;86.80;;;;;;5021503;28;20026;-72
2023/08/18 08:56:52;;;;;;;7.85;4.00;;;21.50;85.90;;;;;;5016677;28;20417;-72
2023/08/18 08:59:18;;;;;;;9.10;3.78;;;21.60;86.30;;;;;;5019436;28;20052;-71
2023/08/18 09:01:44;;;;;;;6.88;3.90;;;21.90;88.00;;;;;;5020462;28;20470;-71
2023/08/18 09:04:09;;;;;;;8.25;4.30;;;22.00;86.40;;;;;;5016063;28;20038;-71
2023/08/18 09:06:36;;;;;;;8.68;4.07;;;22.10;85.20;;;;;;5017468;28;20113;-71
2023/08/18 09:09:01;;;;;;;6.57;3.75;;;22.50;87.40;;;;;;5024030;28;20034;-71
2023/08/18 09:11:43;;;;;;;7.25;3.60;;;22.50;85.20;;;;;;5013650;28;20475;-72
2023/08/18 09:14:09;;;;;;;6.80;3.67;;;22.80;88.70;;;;;;5032855;28;20522;-71
2023/08/18 09:16:35;;;;;;;8.13;3.50;;;22.90;85.50;;;;;;5019651;28;20034;-71
2023/08/18 09:19:03;;;;;;;9.23;3.65;;;23.00;85.60;;;;;;5018552;28;20037;-71
2023/08/18 09:21:31;;;;;;;9.13;3.90;;;23.20;85.50;;;;;;5024793;28;20037;-72
2023/08/18 09:23:57;;;;;;;8.48;3.88;;;23.20;84.40;;;;;;5031536;28;20064;-71
2023/08/18 09:26:24;;;;;;;12.32;3.63;;;23.30;82.90;;;;;;5024990;28;20088;-71
2023/08/18 09:28:50;;;;;;;7.70;3.92;;;23.20;83.70;;;;;;5017832;28;20030;-71
2023/08/18 09:31:15;;;;;;;8.30;3.72;;;23.20;83.30;;;;;;5019700;28;20028;-71
2023/08/18 09:33:41;;;;;;;8.07;3.78;;;23.30;85.00;;;;;;5022432;28;20381;-71
2023/08/18 09:36:11;;;;;;;9.98;3.45;;;23.50;83.40;;;;;;5021444;28;20029;-72
2023/08/18 09:38:43;;;;;;;6.85;3.85;;;23.60;82.50;;;;;;5025488;28;20029;-72
2023/08/18 09:41:09;;;;;;;7.18;3.55;;;23.60;83.20;;;;;;5021100;28;20041;-71
2023/08/18 09:43:38;;;;;;;7.80;3.67;;;23.80;83.40;;;;;;5018041;28;20033;-71
2023/08/18 09:46:05;;;;;;;7.47;3.88;;;23.90;84.40;;;;;;5018410;28;20448;-71
2023/08/18 09:48:38;;;;;;;7.47;3.92;;;24.00;83.00;;;;;;5026455;28;20117;-71
2023/08/18 09:51:07;;;;;;;8.40;3.63;;;23.80;81.60;;;;;;5023952;28;20032;-71
2023/08/18 09:53:33;;;;;;;6.38;3.60;;;24.30;83.60;;;;;;5022880;28;20045;-71
2023/08/18 09:56:03;;;;;;;7.15;3.50;;;24.30;82.80;;;;;;5021956;28;20057;-71
2023/08/18 09:58:40;;;;;;;9.20;3.47;;;24.50;82.10;;;;;;5021516;28;20099;-71
2023/08/18 10:01:08;;;;;;;5.03;3.47;;;24.40;79.90;;;;;;5023967;28;20080;-71
2023/08/18 10:03:37;;;;;;;10.10;3.90;;;24.60;79.30;;;;;;5020691;28;20059;-72
2023/08/18 10:06:06;;;;;;;6.32;3.40;;;24.80;82.10;;;;;;5028477;28;20071;-71
2023/08/18 10:08:32;;;;;;;8.82;3.35;;;24.90;80.70;;;;;;5022400;28;20032;-70
2023/08/18 10:10:59;;;;;;;8.65;3.63;;;25.00;78.90;;;;;;5017421;28;20038;-71
2023/08/18 10:13:25;;;;;;;6.35;3.53;;;24.90;79.80;;;;;;5018800;28;20045;-71
2023/08/18 10:15:52;;;;;;;6.55;2.83;;;25.30;79.30;;;;;;5023063;28;20100;-71
2023/08/18 10:18:17;;;;;;;13.13;3.60;;;25.50;80.60;;;;;;5016730;28;20156;-73
2023/08/18 10:20:55;;;;;;;8.38;3.35;;;25.70;78.20;;;;;;5020922;28;20061;-71
2023/08/18 10:23:24;;;;;;;4.88;3.28;;;25.60;79.70;;;;;;5024195;28;20030;-73
2023/08/18 10:25:50;;;;;;;7.75;3.00;;;25.80;79.30;;;;;;5020169;28;20038;-72
2023/08/18 10:28:18;;;;;;;5.80;3.40;;;25.70;78.60;;;;;;5022741;28;20033;-73
2023/08/18 10:30:50;;;;;;;5.22;3.20;;;26.00;78.90;;;;;;5037311;28;20152;-71
2023/08/18 10:33:27;;;;;;;5.78;3.28;;;25.70;76.70;;;;;;5022883;28;20453;-72
2023/08/18 10:35:57;;;;;;;4.97;3.20;;;26.00;77.70;;;;;;5026973;28;20030;-72
2023/08/18 10:38:26;;;;;;;8.35;3.28;;;26.30;75.00;;;;;;5025979;28;20064;-69
2023/08/18 10:40:52;;;;;;;6.05;3.50;;;25.70;76.00;;;;;;5020699;28;20136;-70
2023/08/18 10:43:18;;;;;;;7.05;3.13;;;26.40;76.40;;;;;;5021544;28;20144;-69
2023/08/18 10:45:49;;;;;;;5.78;3.17;;;26.60;77.90;;;;;;5028043;28;20029;-69
2023/08/18 10:48:14;;;;;;;9.23;3.10;;;26.60;77.50;;;;;;5033856;28;20055;-70
2023/08/18 10:50:42;;;;;;;7.18;2.90;;;26.70;74.80;;;;;;5025084;28;20037;-70
2023/08/18 10:53:11;;;;;;;4.40;3.20;;;26.90;75.10;;;;;;5036022;28;20127;-69
2023/08/18 10:55:37;;;;;;;4.68;2.63;;;26.90;76.00;;;;;;5024642;28;20067;-71
2023/08/18 10:58:02;;;;;;;5.32;3.00;;;27.20;76.50;;;;;;5021881;28;20049;-71
2023/08/18 11:00:36;;;;;;;5.28;2.85;;;27.10;74.80;;;;;;5030245;28;20132;-72
2023/08/18 11:03:03;;;;;;;4.75;2.92;;;27.20;74.20;;;;;;5020473;28;20096;-70
2023/08/18 11:05:31;;;;;;;5.35;2.50;;;27.30;74.10;;;;;;5032581;28;20389;-71
2023/08/18 11:07:58;;;;;;;7.03;3.00;;;27.60;74.40;;;;;;5034647;28;20136;-72
2023/08/18 11:10:24;;;;;;;4.97;2.92;;;27.50;70.30;;;;;;5037172;28;20021;-72
2023/08/18 11:12:52;;;;;;;4.97;3.13;;;27.60;73.50;;;;;;5023982;28;20033;-70
2023/08/18 11:15:22;;;;;;;5.47;2.63;;;27.90;72.80;;;;;;5020717;28;20088;-71
2023/08/18 11:17:48;;;;;;;6.47;2.88;;;28.10;72.50;;;;;;5026973;28;20037;-71
2023/08/18 11:20:14;;;;;;;7.00;2.65;;;28.00;72.40;;;;;;5028765;28;20064;-69
2023/08/18 11:22:41;;;;;;;4.55;2.58;;;28.10;71.50;;;;;;5025516;28;20757;-69
2023/08/18 11:25:08;;;;;;;4.47;2.78;;;28.70;71.70;;;;;;5030651;28;20111;-72
2023/08/18 11:27:34;;;;;;;5.22;2.70;;;29.00;70.00;;;;;;5025027;28;20021;-71
2023/08/18 11:30:04;;;;;;;6.35;3.50;;;28.50;71.00;;;;;;5027237;28;20385;-71
2023/08/18 11:32:29;;;;;;;7.80;2.92;;;28.30;71.40;;;;;;5025594;28;20091;-70
2023/08/18 11:34:55;;;;;;;7.85;3.33;;;28.60;71.50;;;;;;5023534;28;20033;-71
2023/08/18 11:37:22;;;;;;;3.97;2.63;;;28.40;69.50;;;;;;5030895;28;20036;-72
2023/08/18 11:39:48;;;;;;;5.10;2.90;;;28.30;71.40;;;;;;5027323;28;20124;-71
2023/08/18 11:42:13;;;;;;;6.65;3.50;;;28.00;73.00;;;;;;5031475;28;20116;-72
2023/08/18 11:44:39;;;;;;;4.90;2.67;;;27.90;73.60;;;;;;5028409;28;20064;-71
2023/08/18 11:47:06;;;;;;;8.13;3.50;;;28.20;72.50;;;;;;5022852;28;20065;-70
2023/08/18 11:49:32;;;;;;;5.57;3.10;;;28.60;71.60;;;;;;5024648;28;20045;-72
2023/08/18 11:52:06;;;;;;;7.50;3.45;;;28.30;71.70;;;;;;5021193;28;20091;-71
2023/08/18 11:54:33;;;;;;;5.65;3.05;;;28.40;69.50;;;;;;5032514;28;20037;-71
2023/08/18 11:57:03;;;;;;;7.55;3.20;;;28.40;69.30;;;;;;5028329;28;20037;-71
2023/08/18 11:59:29;;;;;;;6.03;3.08;;;28.30;70.10;;;;;;5024929;28;20021;-70
2023/08/18 12:01:56;;;;;;;4.68;2.90;;;28.80;71.80;;;;;;5025936;28;20099;-71
2023/08/18 12:04:29;;;;;;;6.15;2.90;;;29.10;68.00;;;;;;5023527;28;20026;-70
2023/08/18 12:06:55;;;;;;;5.03;2.92;;;29.30;69.40;;;;;;5026205;28;20022;-72
2023/08/18 12:09:21;;;;;;;5.60;3.42;;;29.60;68.80;;;;;;5028006;28;20044;-71
2023/08/18 12:11:48;;;;;;;5.97;3.08;;;29.60;67.00;;;;;;5022094;28;20041;-70
2023/08/18 12:14:13;;;;;;;5.40;3.30;;;29.60;66.60;;;;;;5023849;28;20056;-71
2023/08/18 12:16:39;;;;;;;5.43;2.88;;;29.70;67.20;;;;;;5026117;28;20557;-71
2023/08/18 12:19:05;;;;;;;5.25;2.75;;;29.70;67.00;;;;;;5028716;28;20509;-72
2023/08/18 12:21:37;;;;;;;5.32;2.90;;;30.40;67.90;;;;;;5013831;28;20054;-71
2023/08/18 12:24:04;;;;;;;4.45;2.90;;;29.60;66.30;;;;;;5023779;28;20099;-70
2023/08/18 12:26:30;;;;;;;4.32;2.75;;;30.00;68.60;;;;;;5018966;28;20032;-71
2023/08/18 12:28:56;;;;;;;4.53;2.97;;;30.40;66.80;;;;;;5023500;28;20056;-71
2023/08/18 12:31:24;;;;;;;5.70;2.90;;;30.50;64.80;;;;;;5028954;28;20101;-71
2023/08/18 12:33:53;;;;;;;5.07;2.75;;;30.60;65.20;;;;;;5022722;28;20428;-71
2023/08/18 12:36:19;;;;;;;5.13;3.10;;;30.60;64.50;;;;;;5017187;28;20489;-71
2023/08/18 12:38:45;;;;;;;4.68;3.17;;;31.10;65.70;;;;;;5024044;28;20347;-72
2023/08/18 12:41:10;;;;;;;4.22;3.03;;;31.40;64.20;;;;;;5024420;28;20045;-70
2023/08/18 12:43:39;;;;;;;4.38;3.15;;;31.40;62.30;;;;;;5029771;28;20101;-70